Авиационная погода в Сабетта

СКИДКИ НА СМАРТФОНЫ!

Регион: 
Погода METAR: 
USDA 072100Z AUTO 05009MPS 3100 // ///017/// M17/M20 Q1008 RMK QFE755/1007
Время наблюдения
2022-12-07T21:00:00Z
Температура C
-17.0
Точка росы
-20.0
Направление ветра
50
Скорость ветра (узлы)
17
Метео видимость
1.93
Облачность
Нижняя граница облачности (футы)
Явления погоды
Условия полета
Аэропорт подробнее: 

Скидки на навигаторы!